Time;durP1;ratioP1;P1;durP2;ratioP2;P2;SDS_P1;SDS_P2;PMS_P1;PMS_P2;Temp;Humidity;BMP_temperature;BMP_pressure;BME280_temperature;BME280_humidity;BME280_pressure;Samples;Min_cycle;Max_cycle;Signal;HPM_P1;HPM_P2
2021/01/25 00:01:49;;;;;;;2.60;1.10;;;20.70;50.90;;;;;;4968210;28;20467;-66
2021/01/25 00:04:15;;;;;;;1.83;1.08;;;20.70;50.80;;;;;;4968304;28;20086;-67
2021/01/25 00:06:41;;;;;;;2.30;0.90;;;20.70;50.80;;;;;;4969067;28;20085;-66
2021/01/25 00:09:06;;;;;;;1.52;0.90;;;20.70;50.80;;;;;;4968098;28;20117;-66
2021/01/25 00:11:32;;;;;;;1.42;0.90;;;20.70;50.70;;;;;;4968367;28;20027;-69
2021/01/25 00:13:57;;;;;;;1.40;1.00;;;20.70;50.70;;;;;;4968744;28;20225;-68
2021/01/25 00:16:23;;;;;;;1.65;1.00;;;20.60;50.60;;;;;;4963755;28;20031;-68
2021/01/25 00:18:49;;;;;;;1.88;0.90;;;20.60;50.60;;;;;;4960345;28;20058;-68
2021/01/25 00:21:14;;;;;;;2.75;1.10;;;20.60;50.60;;;;;;4968977;28;20142;-68
2021/01/25 00:23:40;;;;;;;1.42;0.88;;;20.60;50.60;;;;;;4967253;28;20027;-68
2021/01/25 00:26:06;;;;;;;2.80;1.20;;;20.60;50.60;;;;;;4949057;28;20514;-68
2021/01/25 00:28:31;;;;;;;1.80;0.95;;;20.60;50.50;;;;;;4962934;28;20162;-68
2021/01/25 00:30:57;;;;;;;1.65;0.90;;;20.60;50.60;;;;;;4965402;28;20035;-68
2021/01/25 00:33:22;;;;;;;1.77;1.00;;;20.60;50.60;;;;;;4965985;28;20446;-68
2021/01/25 00:35:48;;;;;;;1.52;0.90;;;20.60;50.50;;;;;;4962820;28;20100;-68
2021/01/25 00:38:14;;;;;;;2.05;0.98;;;20.50;50.40;;;;;;4956418;28;20039;-68
2021/01/25 00:40:40;;;;;;;1.88;1.05;;;20.50;50.40;;;;;;4955133;28;20034;-68
2021/01/25 00:43:06;;;;;;;2.53;1.33;;;20.50;50.40;;;;;;4964647;28;20065;-68
2021/01/25 00:45:32;;;;;;;1.52;1.00;;;20.50;50.40;;;;;;4963062;28;20039;-68
2021/01/25 00:47:57;;;;;;;2.28;1.02;;;20.50;50.40;;;;;;4953382;28;20049;-68
2021/01/25 00:50:23;;;;;;;1.90;0.98;;;20.50;50.40;;;;;;4959965;28;20463;-68
2021/01/25 00:52:49;;;;;;;1.05;0.90;;;20.50;50.40;;;;;;4950838;28;20106;-68
2021/01/25 00:55:15;;;;;;;1.90;1.10;;;20.50;50.40;;;;;;4960061;28;20035;-68
2021/01/25 00:57:45;;;;;;;1.58;0.93;;;20.50;50.40;;;;;;4949801;28;20015;-68
2021/01/25 01:00:12;;;;;;;1.65;1.00;;;20.50;50.40;;;;;;4950446;28;20035;-67
2021/01/25 01:02:38;;;;;;;1.60;1.00;;;20.40;50.30;;;;;;4966972;28;20030;-67
2021/01/25 01:05:05;;;;;;;2.47;0.80;;;20.40;50.40;;;;;;4964787;28;20035;-67
2021/01/25 01:07:31;;;;;;;1.70;1.10;;;20.40;50.30;;;;;;4951318;28;20027;-68
2021/01/25 01:09:57;;;;;;;1.80;0.90;;;20.40;50.30;;;;;;4952939;28;20454;-67
2021/01/25 01:12:22;;;;;;;2.08;1.00;;;20.40;50.30;;;;;;4950694;28;20528;-68
2021/01/25 01:14:48;;;;;;;2.17;1.13;;;20.40;50.30;;;;;;4956730;28;20035;-68
2021/01/25 01:17:14;;;;;;;1.40;0.85;;;20.40;50.20;;;;;;4960599;28;20110;-67
2021/01/25 01:19:39;;;;;;;1.95;0.88;;;20.40;50.20;;;;;;4947321;28;20027;-67
2021/01/25 01:22:05;;;;;;;1.40;0.98;;;20.40;50.20;;;;;;4952470;28;20023;-67
2021/01/25 01:24:31;;;;;;;3.03;1.05;;;20.40;50.20;;;;;;4967718;28;20041;-67
2021/01/25 01:26:56;;;;;;;1.55;1.00;;;20.40;50.20;;;;;;4948913;28;20399;-68
2021/01/25 01:29:22;;;;;;;2.00;1.05;;;20.30;50.20;;;;;;4956947;28;20024;-67
2021/01/25 01:31:48;;;;;;;1.73;1.00;;;20.30;50.20;;;;;;4950160;28;20494;-68
2021/01/25 01:34:13;;;;;;;2.17;1.02;;;20.30;50.20;;;;;;4949591;28;20074;-67
2021/01/25 01:36:39;;;;;;;1.60;0.90;;;20.30;50.10;;;;;;4950337;28;20039;-67
2021/01/25 01:39:05;;;;;;;2.45;1.00;;;20.30;50.10;;;;;;4960235;28;20066;-67
2021/01/25 01:41:40;;;;;;;2.08;0.90;;;20.30;50.20;;;;;;4967517;28;20026;-67
2021/01/25 01:44:07;;;;;;;1.65;0.95;;;20.30;50.10;;;;;;4965306;28;20114;-68
2021/01/25 01:46:34;;;;;;;1.42;0.90;;;20.30;50.10;;;;;;4965962;28;20034;-67
2021/01/25 01:49:10;;;;;;;2.40;1.30;;;20.30;50.10;;;;;;5070404;27;20478;-63
2021/01/25 01:51:39;;;;;;;1.73;0.88;;;20.20;50.10;;;;;;5065277;28;20071;-63
2021/01/25 01:54:06;;;;;;;1.50;1.00;;;20.20;50.10;;;;;;5040194;28;20056;-63
2021/01/25 01:56:34;;;;;;;2.05;0.90;;;20.30;50.10;;;;;;5023837;28;20478;-64
2021/01/25 01:58:59;;;;;;;2.00;1.00;;;20.20;50.00;;;;;;5044488;28;20457;-64
2021/01/25 02:01:25;;;;;;;1.25;0.90;;;20.20;50.00;;;;;;5043626;28;20037;-64
2021/01/25 02:03:50;;;;;;;1.63;0.90;;;20.20;50.00;;;;;;5043618;28;20411;-63
2021/01/25 02:06:18;;;;;;;1.70;0.95;;;20.20;50.00;;;;;;5075518;28;20037;-64
2021/01/25 02:08:45;;;;;;;1.25;0.90;;;20.30;50.00;;;;;;5043516;28;20075;-63
2021/01/25 02:11:11;;;;;;;1.58;0.90;;;20.20;50.00;;;;;;5076178;28;20025;-63
2021/01/25 02:13:37;;;;;;;1.63;0.88;;;20.20;50.00;;;;;;5072909;28;20057;-63
2021/01/25 02:16:04;;;;;;;1.60;0.93;;;20.20;50.00;;;;;;5043231;28;20772;-63
2021/01/25 02:18:33;;;;;;;1.67;1.10;;;20.20;50.00;;;;;;5043605;28;20112;-63
2021/01/25 02:20:59;;;;;;;1.92;0.95;;;20.20;50.00;;;;;;5043418;28;20115;-63
2021/01/25 02:23:46;;;;;;;1.70;1.00;;;20.20;50.00;;;;;;5043858;28;20435;-63
2021/01/25 02:26:41;;;;;;;1.83;1.05;;;20.20;50.00;;;;;;5069681;28;20025;-64
2021/01/25 02:29:07;;;;;;;1.27;0.85;;;20.20;50.00;;;;;;5043685;28;20044;-64
2021/01/25 02:31:33;;;;;;;1.67;0.90;;;20.10;49.90;;;;;;5038805;28;20037;-65
2021/01/25 02:33:59;;;;;;;1.38;0.90;;;20.10;49.90;;;;;;5043350;28;20021;-64
2021/01/25 02:36:27;;;;;;;1.75;0.95;;;20.20;50.00;;;;;;5034399;28;20392;-64
2021/01/25 02:38:54;;;;;;;2.78;0.90;;;20.10;49.90;;;;;;5037284;28;20112;-64
2021/01/25 02:41:25;;;;;;;1.13;0.90;;;20.10;49.90;;;;;;5044271;28;20065;-63
2021/01/25 02:43:53;;;;;;;1.42;0.95;;;20.10;49.90;;;;;;5043448;28;20712;-64
2021/01/25 02:46:19;;;;;;;1.60;0.98;;;20.10;49.90;;;;;;5043360;28;20086;-64
2021/01/25 02:48:45;;;;;;;1.70;1.00;;;20.10;49.90;;;;;;5042486;28;20703;-64
2021/01/25 02:51:13;;;;;;;1.50;0.90;;;20.10;50.00;;;;;;5075700;28;20083;-64
2021/01/25 02:53:39;;;;;;;1.27;0.90;;;20.10;49.90;;;;;;5075766;28;20029;-63
2021/01/25 02:56:06;;;;;;;0.95;0.80;;;20.10;49.90;;;;;;5055251;28;20032;-63
2021/01/25 02:58:33;;;;;;;1.40;0.82;;;20.10;49.90;;;;;;5040605;28;20414;-64
2021/01/25 03:00:58;;;;;;;1.42;1.05;;;20.10;50.00;;;;;;5029047;28;20041;-64
2021/01/25 03:03:26;;;;;;;1.80;1.00;;;20.10;49.90;;;;;;5028523;28;20039;-64
2021/01/25 03:05:52;;;;;;;1.60;0.93;;;20.10;49.90;;;;;;5023598;28;20083;-63
2021/01/25 03:08:18;;;;;;;1.65;0.90;;;20.00;49.90;;;;;;5029517;28;20034;-64
2021/01/25 03:10:47;;;;;;;1.67;0.90;;;20.00;49.90;;;;;;5029967;28;20017;-64
2021/01/25 03:13:14;;;;;;;1.55;0.82;;;20.00;49.90;;;;;;5030138;28;20017;-64
2021/01/25 03:15:41;;;;;;;2.22;1.00;;;20.00;49.90;;;;;;5029244;28;20066;-64
2021/01/25 03:18:06;;;;;;;1.45;0.90;;;20.00;49.90;;;;;;5029519;28;20047;-65
2021/01/25 03:20:32;;;;;;;1.35;0.80;;;20.00;49.90;;;;;;5028528;28;20480;-64
2021/01/25 03:22:57;;;;;;;2.25;1.20;;;20.00;49.90;;;;;;5062543;28;20131;-63
2021/01/25 03:25:23;;;;;;;1.30;0.90;;;20.00;49.90;;;;;;5026587;28;20361;-64
2021/01/25 03:27:49;;;;;;;1.38;0.90;;;20.00;49.90;;;;;;5027113;28;20096;-64
2021/01/25 03:30:15;;;;;;;1.80;0.93;;;20.00;49.90;;;;;;5027753;28;20488;-64
2021/01/25 03:32:41;;;;;;;1.20;0.90;;;20.00;49.90;;;;;;5061848;28;20452;-63
2021/01/25 03:35:09;;;;;;;1.95;0.90;;;20.00;50.00;;;;;;5026247;28;20029;-64
2021/01/25 03:37:35;;;;;;;1.10;0.80;;;19.90;49.90;;;;;;5026966;28;20120;-63
2021/01/25 03:40:02;;;;;;;1.90;1.00;;;19.90;49.90;;;;;;5026981;28;20044;-65
2021/01/25 03:42:27;;;;;;;2.13;0.93;;;19.90;49.90;;;;;;5028249;28;20068;-64
2021/01/25 03:44:53;;;;;;;2.22;0.95;;;19.90;50.00;;;;;;5029748;28;20088;-63
2021/01/25 03:47:18;;;;;;;1.38;0.80;;;19.90;49.90;;;;;;5028859;28;20037;-64
2021/01/25 03:49:44;;;;;;;1.50;1.00;;;19.90;49.90;;;;;;5028577;28;20057;-64
2021/01/25 03:52:09;;;;;;;1.10;0.90;;;19.90;50.00;;;;;;5026054;28;20095;-63
2021/01/25 03:54:35;;;;;;;1.50;0.85;;;19.90;50.00;;;;;;5029001;28;20056;-64
2021/01/25 03:57:02;;;;;;;1.50;0.80;;;19.90;49.90;;;;;;5027506;28;20113;-64
2021/01/25 03:59:29;;;;;;;1.20;0.90;;;19.90;50.00;;;;;;5029256;28;20452;-64
2021/01/25 04:01:55;;;;;;;1.60;0.90;;;19.90;49.90;;;;;;5026497;28;20116;-64
2021/01/25 04:04:21;;;;;;;1.65;1.00;;;19.90;50.00;;;;;;5029547;28;20473;-64
2021/01/25 04:06:47;;;;;;;2.00;1.00;;;19.90;50.00;;;;;;5019287;28;20072;-63
2021/01/25 04:09:13;;;;;;;1.20;0.80;;;19.80;49.90;;;;;;5060324;28;20025;-65
2021/01/25 04:11:38;;;;;;;2.17;1.10;;;19.80;49.90;;;;;;5028425;28;20083;-64
2021/01/25 04:14:05;;;;;;;1.42;0.90;;;19.80;49.90;;;;;;5028398;28;20037;-63
2021/01/25 04:16:31;;;;;;;1.35;0.90;;;19.80;49.90;;;;;;5026919;28;20026;-63
2021/01/25 04:18:57;;;;;;;1.98;1.10;;;19.80;49.90;;;;;;5027802;28;20052;-63
2021/01/25 04:21:22;;;;;;;2.00;1.10;;;19.80;49.90;;;;;;5028515;28;20399;-63
2021/01/25 04:23:48;;;;;;;1.17;0.80;;;19.80;49.90;;;;;;5018557;28;20080;-64
2021/01/25 04:26:15;;;;;;;1.30;0.95;;;19.80;49.90;;;;;;5028108;28;20046;-64
2021/01/25 04:28:42;;;;;;;1.27;0.88;;;19.80;49.90;;;;;;5023415;28;20107;-64
2021/01/25 04:31:08;;;;;;;1.27;0.88;;;19.80;49.90;;;;;;5027539;28;20034;-63
2021/01/25 04:33:34;;;;;;;1.83;1.05;;;19.80;49.90;;;;;;5026459;28;20029;-64
2021/01/25 04:36:00;;;;;;;1.33;1.00;;;19.80;49.90;;;;;;5027379;28;20040;-63
2021/01/25 04:38:25;;;;;;;1.73;0.90;;;19.80;49.90;;;;;;5027169;28;20041;-63
2021/01/25 04:40:51;;;;;;;1.55;0.90;;;19.80;49.90;;;;;;5025342;28;20480;-64
2021/01/25 04:43:18;;;;;;;1.50;0.95;;;19.80;49.90;;;;;;5011235;28;20034;-64
2021/01/25 04:45:45;;;;;;;2.10;1.20;;;19.80;49.90;;;;;;5026937;28;20025;-64
2021/01/25 04:48:11;;;;;;;1.67;1.00;;;19.80;49.90;;;;;;5025727;28;20120;-66
2021/01/25 04:50:38;;;;;;;1.52;1.00;;;19.80;49.90;;;;;;5027599;28;20075;-63
2021/01/25 04:53:05;;;;;;;1.60;1.10;;;19.80;49.90;;;;;;5028812;28;20075;-64
2021/01/25 04:55:33;;;;;;;2.00;1.23;;;19.80;49.90;;;;;;5025511;28;20044;-62
2021/01/25 04:57:59;;;;;;;1.58;1.00;;;19.80;49.90;;;;;;5027735;28;20021;-63
2021/01/25 05:00:25;;;;;;;1.50;1.00;;;19.80;50.40;;;;;;5027742;28;20037;-64
2021/01/25 05:02:50;;;;;;;1.65;0.90;;;19.80;49.90;;;;;;5028386;28;20048;-64
2021/01/25 05:05:19;;;;;;;0.98;0.80;;;19.80;49.80;;;;;;5025123;28;20029;-64
2021/01/25 05:07:45;;;;;;;1.55;1.00;;;19.80;49.90;;;;;;5008719;28;20816;-63
2021/01/25 05:10:11;;;;;;;2.15;1.10;;;19.80;49.80;;;;;;5020146;28;20049;-64
2021/01/25 05:12:46;;;;;;;1.17;0.80;;;19.80;49.80;;;;;;5028404;28;20104;-64
2021/01/25 05:15:24;;;;;;;2.10;1.10;;;19.80;49.90;;;;;;5027627;28;20774;-64
2021/01/25 05:17:50;;;;;;;1.25;0.90;;;19.80;49.80;;;;;;5042675;28;20029;-63
2021/01/25 05:20:16;;;;;;;1.50;0.93;;;19.80;49.80;;;;;;5025050;28;20037;-64
2021/01/25 05:22:41;;;;;;;1.50;0.90;;;19.80;49.80;;;;;;5027544;28;20064;-63
2021/01/25 05:25:08;;;;;;;1.73;1.00;;;19.80;49.80;;;;;;5026790;28;20435;-63
2021/01/25 05:27:35;;;;;;;1.52;1.00;;;19.80;49.80;;;;;;5027725;28;20017;-64
2021/01/25 05:30:11;;;;;;;1.98;1.05;;;19.80;49.80;;;;;;5059229;28;20029;-64
2021/01/25 05:32:48;;;;;;;1.48;0.90;;;19.80;49.80;;;;;;5003345;28;20037;-63
2021/01/25 05:35:17;;;;;;;1.70;1.10;;;19.80;49.70;;;;;;5000729;28;20030;-63
2021/01/25 05:37:50;;;;;;;2.10;1.27;;;19.80;49.70;;;;;;4998334;28;20042;-63
2021/01/25 05:40:16;;;;;;;1.92;1.27;;;19.80;50.20;;;;;;4992552;28;20384;-64
2021/01/25 05:42:42;;;;;;;1.80;1.30;;;19.80;49.70;;;;;;5006562;28;20033;-64
2021/01/25 05:45:10;;;;;;;2.17;1.50;;;19.80;49.60;;;;;;5004712;28;20036;-64
2021/01/25 05:47:46;;;;;;;2.70;1.80;;;19.80;49.60;;;;;;5006584;28;20033;-63
2021/01/25 05:50:25;;;;;;;2.30;1.75;;;19.80;49.60;;;;;;5005829;28;20223;-63
2021/01/25 05:52:52;;;;;;;2.88;2.05;;;19.80;49.60;;;;;;4998463;28;20131;-63
2021/01/25 05:55:19;;;;;;;2.47;2.13;;;19.80;49.70;;;;;;4998059;28;20033;-63
2021/01/25 05:57:44;;;;;;;2.58;1.95;;;19.80;49.70;;;;;;4993947;28;20065;-63
2021/01/25 06:00:10;;;;;;;2.53;2.17;;;19.80;49.70;;;;;;4992583;28;20507;-63
2021/01/25 06:02:40;;;;;;;2.80;2.10;;;19.80;49.70;;;;;;5027327;28;20056;-63
2021/01/25 06:05:07;;;;;;;;;;;19.80;49.70;;;;;;5026859;28;20483;-64
2021/01/25 06:07:33;;;;;;;3.03;2.33;;;19.80;49.70;;;;;;5027202;28;19927;-63
2021/01/25 06:10:02;;;;;;;2.60;2.17;;;19.80;49.70;;;;;;5022711;28;20033;-63
2021/01/25 06:12:40;;;;;;;3.47;2.17;;;19.80;49.70;;;;;;5026807;28;20021;-63
2021/01/25 06:15:10;;;;;;;2.88;2.20;;;19.80;49.70;;;;;;5025418;28;20052;-64
2021/01/25 06:17:38;;;;;;;2.30;1.90;;;19.80;49.70;;;;;;5022124;28;20022;-64
2021/01/25 06:20:06;;;;;;;2.92;2.15;;;19.70;49.70;;;;;;5025713;28;20048;-63
2021/01/25 06:22:32;;;;;;;2.35;2.05;;;19.70;49.70;;;;;;5026981;28;21010;-63
2021/01/25 06:25:00;;;;;;;2.47;2.10;;;19.70;49.70;;;;;;5023090;28;20037;-64
2021/01/25 06:27:26;;;;;;;2.70;2.10;;;19.70;49.70;;;;;;5023307;28;20030;-64
2021/01/25 06:29:53;;;;;;;2.70;2.35;;;19.70;49.70;;;;;;5023901;28;20028;-71
2021/01/25 06:32:18;;;;;;;3.38;2.83;;;19.80;49.90;;;;;;5023096;28;20034;-72
2021/01/25 06:34:45;;;;;;;2.85;2.40;;;19.80;51.30;;;;;;5025868;28;20032;-72
2021/01/25 06:37:16;;;;;;;2.90;2.08;;;20.00;51.70;;;;;;5022840;28;20112;-72
2021/01/25 06:39:45;;;;;;;2.40;1.95;;;20.30;51.30;;;;;;5027632;28;20037;-79
2021/01/25 06:42:16;;;;;;;2.30;1.83;;;20.60;51.50;;;;;;5023398;28;20082;-78
2021/01/25 06:44:43;;;;;;;2.50;1.70;;;20.80;50.80;;;;;;5031923;28;20516;-80
2021/01/25 06:47:13;;;;;;;2.15;1.48;;;20.90;50.60;;;;;;5029659;28;20133;-78
2021/01/25 06:49:39;;;;;;;2.08;1.50;;;21.10;50.60;;;;;;5029245;28;20486;-75
2021/01/25 06:52:09;;;;;;;2.03;1.50;;;21.20;50.50;;;;;;5029856;28;20026;-75
2021/01/25 06:54:42;;;;;;;2.05;1.10;;;21.30;50.50;;;;;;5062395;28;20075;-72
2021/01/25 06:57:08;;;;;;;1.08;0.90;;;21.40;50.20;;;;;;5030087;28;20024;-72
2021/01/25 06:59:37;;;;;;;1.10;0.90;;;21.30;50.60;;;;;;5026290;28;20026;-76
2021/01/25 07:02:09;;;;;;;1.97;1.40;;;21.30;50.50;;;;;;5027741;28;20037;-75
2021/01/25 07:04:44;;;;;;;1.65;1.20;;;21.20;50.80;;;;;;5029985;28;20075;-71
2021/01/25 07:07:36;;;;;;;1.73;1.13;;;21.40;50.90;;;;;;5028052;28;20113;-85
2021/01/25 07:10:06;;;;;;;1.30;0.93;;;21.70;50.60;;;;;;5030195;28;20152;-71
2021/01/25 07:12:32;;;;;;;1.17;0.80;;;21.80;50.20;;;;;;5032307;28;20052;-78
2021/01/25 07:14:58;;;;;;;1.73;1.00;;;21.80;50.00;;;;;;5033259;28;20025;-76
2021/01/25 07:17:23;;;;;;;1.88;0.80;;;21.80;50.00;;;;;;5026773;28;20145;-72
2021/01/25 07:19:49;;;;;;;1.85;1.00;;;21.70;50.20;;;;;;5021455;28;20033;-71
2021/01/25 07:22:16;;;;;;;1.80;1.13;;;21.80;50.90;;;;;;5021616;28;20029;-70
2021/01/25 07:24:42;;;;;;;1.25;0.98;;;22.10;50.60;;;;;;5028341;28;20543;-73
2021/01/25 07:27:08;;;;;;;1.15;0.80;;;22.30;50.40;;;;;;5027337;28;20048;-72
2021/01/25 07:29:33;;;;;;;1.67;0.80;;;22.40;49.80;;;;;;5029305;28;20115;-73
2021/01/25 07:32:00;;;;;;;1.10;0.80;;;22.40;49.70;;;;;;5030480;28;20041;-71
2021/01/25 07:34:30;;;;;;;0.82;0.70;;;22.30;49.80;;;;;;5032505;28;20771;-73
2021/01/25 07:36:56;;;;;;;1.30;1.00;;;22.30;50.00;;;;;;5032137;28;20155;-75
2021/01/25 07:39:21;;;;;;;1.20;0.80;;;22.30;50.60;;;;;;5032819;28;20543;-75
2021/01/25 07:41:48;;;;;;;0.80;0.70;;;22.50;50.10;;;;;;5033851;28;20051;-72
2021/01/25 07:44:15;;;;;;;0.70;0.63;;;22.50;49.90;;;;;;5031329;28;20689;-68
2021/01/25 07:46:44;;;;;;;1.00;0.70;;;22.50;49.90;;;;;;5031413;28;20113;-73
2021/01/25 07:49:10;;;;;;;0.95;0.70;;;22.50;50.10;;;;;;5030813;28;20559;-70
2021/01/25 07:51:37;;;;;;;0.98;0.70;;;22.40;50.10;;;;;;5031382;28;20034;-72
2021/01/25 07:54:04;;;;;;;1.25;0.80;;;22.40;50.20;;;;;;5044132;28;20282;-72
2021/01/25 07:56:30;;;;;;;1.10;0.68;;;22.40;50.20;;;;;;5030190;28;20026;-73
2021/01/25 07:59:08;;;;;;;1.73;1.00;;;22.40;50.20;;;;;;5062997;28;20748;-71
2021/01/25 08:02:15;;;;;;;1.20;0.80;;;22.60;50.60;;;;;;5029974;28;20041;-69
2021/01/25 08:04:43;;;;;;;0.88;0.77;;;22.70;50.20;;;;;;5027544;28;20040;-72
2021/01/25 08:07:14;;;;;;;0.70;0.65;;;22.70;50.10;;;;;;5029561;28;20083;-69
2021/01/25 08:09:43;;;;;;;1.20;0.60;;;22.70;50.10;;;;;;5030394;28;20041;-71
2021/01/25 08:12:09;;;;;;;1.02;0.65;;;22.70;50.20;;;;;;5027023;28;20041;-70
2021/01/25 08:14:38;;;;;;;0.73;0.60;;;22.70;50.20;;;;;;5027988;28;20021;-70
2021/01/25 08:17:11;;;;;;;1.17;0.70;;;22.70;50.20;;;;;;5029193;28;20052;-74
2021/01/25 08:19:43;;;;;;;1.05;0.60;;;22.80;50.80;;;;;;5027503;28;20029;-72
2021/01/25 08:22:17;;;;;;;0.70;0.60;;;22.90;50.30;;;;;;5029403;28;20095;-71
2021/01/25 08:24:52;;;;;;;0.80;0.60;;;22.90;50.10;;;;;;5011576;28;20056;-72
2021/01/25 08:27:18;;;;;;;0.70;0.70;;;22.90;50.10;;;;;;5027586;28;20025;-72
2021/01/25 08:29:48;;;;;;;0.60;0.60;;;22.90;50.10;;;;;;5029053;28;20047;-71
2021/01/25 08:32:26;;;;;;;0.93;0.52;;;22.90;50.10;;;;;;5027445;28;20041;-72
2021/01/25 08:35:05;;;;;;;1.05;0.75;;;22.80;50.10;;;;;;5042015;28;20607;-62
2021/01/25 08:37:33;;;;;;;1.77;1.00;;;22.90;49.50;;;;;;5058860;28;20043;-62
2021/01/25 08:40:11;;;;;;;2.42;1.25;;;22.80;47.40;;;;;;5028658;28;20056;-72
2021/01/25 08:42:37;;;;;;;2.22;1.30;;;22.80;46.70;;;;;;5026191;28;20029;-71
2021/01/25 08:45:12;;;;;;;1.77;1.13;;;22.80;46.60;;;;;;5029726;28;20118;-67
2021/01/25 08:47:39;;;;;;;1.70;1.17;;;22.80;46.50;;;;;;5027037;28;20423;-72
2021/01/25 08:50:26;;;;;;;2.15;1.23;;;22.70;46.50;;;;;;5026476;28;20429;-69
2021/01/25 08:53:28;;;;;;;1.55;1.08;;;22.70;46.60;;;;;;5060511;28;20064;-70
2021/01/25 08:55:57;;;;;;;2.15;1.30;;;22.70;46.40;;;;;;5008912;28;20107;-75
2021/01/25 08:58:30;;;;;;;2.53;1.30;;;22.60;46.30;;;;;;5021112;28;20097;-73
2021/01/25 09:00:56;;;;;;;2.45;1.30;;;22.60;46.10;;;;;;5024876;28;20068;-73
2021/01/25 09:03:23;;;;;;;1.90;1.30;;;22.60;46.10;;;;;;5028622;28;20474;-73
2021/01/25 09:05:53;;;;;;;1.95;1.13;;;22.60;46.00;;;;;;5026334;28;20045;-73
2021/01/25 09:08:20;;;;;;;2.22;1.23;;;22.60;46.10;;;;;;5028745;28;20788;-73
2021/01/25 09:10:46;;;;;;;1.83;1.13;;;22.60;46.20;;;;;;5029265;28;20497;-70
2021/01/25 09:13:12;;;;;;;2.08;1.30;;;22.60;46.10;;;;;;5028708;28;20134;-73
2021/01/25 09:15:38;;;;;;;2.30;1.30;;;22.60;46.10;;;;;;5028169;28;20061;-70
2021/01/25 09:18:04;;;;;;;2.53;1.05;;;22.60;46.00;;;;;;5028785;28;20145;-70
2021/01/25 09:20:30;;;;;;;3.28;1.30;;;22.50;46.00;;;;;;5026862;28;20025;-71
2021/01/25 09:22:56;;;;;;;1.80;1.20;;;22.50;46.00;;;;;;5060453;28;20048;-72
2021/01/25 09:25:22;;;;;;;1.55;1.08;;;22.50;46.00;;;;;;5028303;28;20520;-74
2021/01/25 09:27:49;;;;;;;1.55;1.00;;;22.50;46.10;;;;;;5027637;28;20127;-70
2021/01/25 09:30:17;;;;;;;2.50;1.20;;;22.50;46.20;;;;;;5055657;28;20160;-70
2021/01/25 09:32:43;;;;;;;2.30;1.30;;;22.50;46.30;;;;;;5021810;28;20030;-66
2021/01/25 09:35:12;;;;;;;2.10;1.10;;;22.50;46.30;;;;;;5025312;28;20040;-73
2021/01/25 09:37:37;;;;;;;2.75;1.23;;;22.40;46.30;;;;;;5028209;28;20034;-71
2021/01/25 09:40:07;;;;;;;1.50;1.00;;;22.40;46.20;;;;;;5027830;28;20373;-70
2021/01/25 09:42:33;;;;;;;1.70;1.10;;;22.40;46.30;;;;;;5027797;28;20139;-68
2021/01/25 09:44:59;;;;;;;1.75;1.02;;;22.40;46.40;;;;;;5026350;28;20167;-69
2021/01/25 09:47:25;;;;;;;2.00;0.90;;;22.40;46.50;;;;;;5027595;28;20136;-74
2021/01/25 09:49:50;;;;;;;1.85;1.10;;;22.40;46.50;;;;;;5041723;28;20026;-72
2021/01/25 09:52:16;;;;;;;1.60;1.00;;;22.40;46.60;;;;;;5027797;28;20113;-75
2021/01/25 09:54:42;;;;;;;1.85;1.00;;;22.40;46.70;;;;;;5027808;28;20026;-64
2021/01/25 09:57:08;;;;;;;1.83;1.00;;;22.30;46.60;;;;;;5058812;28;20045;-71
2021/01/25 09:59:34;;;;;;;1.20;0.82;;;22.40;46.70;;;;;;5027583;28;20022;-69
2021/01/25 10:02:00;;;;;;;1.70;1.00;;;22.40;46.70;;;;;;5025914;28;20664;-68
2021/01/25 10:04:25;;;;;;;2.72;1.00;;;22.40;46.70;;;;;;5030775;28;20121;-71
2021/01/25 10:06:51;;;;;;;1.92;1.02;;;22.40;46.70;;;;;;5023669;28;20469;-66
2021/01/25 10:09:17;;;;;;;2.10;1.10;;;22.40;46.70;;;;;;5041726;28;20067;-71
2021/01/25 10:11:43;;;;;;;3.10;1.05;;;22.40;46.80;;;;;;5028432;28;20113;-72
2021/01/25 10:14:09;;;;;;;0.98;0.88;;;22.40;46.70;;;;;;5038581;28;20037;-68
2021/01/25 10:16:34;;;;;;;1.73;1.00;;;22.40;46.60;;;;;;5025625;28;20025;-66
2021/01/25 10:19:00;;;;;;;1.63;1.02;;;22.40;46.70;;;;;;5025458;28;20057;-71
2021/01/25 10:21:26;;;;;;;1.30;1.00;;;22.40;46.80;;;;;;5025994;28;20091;-72
2021/01/25 10:23:52;;;;;;;1.75;1.10;;;22.30;46.70;;;;;;5055544;28;20080;-67
2021/01/25 10:26:20;;;;;;;1.88;1.08;;;22.40;46.60;;;;;;5021505;28;20053;-69
2021/01/25 10:28:47;;;;;;;1.45;1.00;;;22.40;46.60;;;;;;5030875;28;20482;-70
2021/01/25 10:31:13;;;;;;;1.20;0.88;;;22.40;46.60;;;;;;5032000;28;20068;-68
2021/01/25 10:33:38;;;;;;;1.80;1.20;;;22.40;46.60;;;;;;5030691;28;20469;-68
2021/01/25 10:36:13;;;;;;;1.85;1.10;;;22.30;46.50;;;;;;5030715;28;20041;-68
2021/01/25 10:38:40;;;;;;;1.38;0.95;;;22.40;46.60;;;;;;5031625;28;20104;-70
2021/01/25 10:41:06;;;;;;;2.90;1.20;;;22.30;46.50;;;;;;5016028;28;20036;-68
2021/01/25 10:43:32;;;;;;;1.60;1.00;;;22.30;46.50;;;;;;5031088;28;20029;-70
2021/01/25 10:45:58;;;;;;;2.00;1.00;;;22.30;46.60;;;;;;5032176;28;20116;-65
2021/01/25 10:48:23;;;;;;;1.60;1.10;;;22.30;46.70;;;;;;5017344;28;20546;-68
2021/01/25 10:50:49;;;;;;;1.60;1.00;;;22.30;46.60;;;;;;5019419;28;20026;-65
2021/01/25 10:53:15;;;;;;;1.23;0.90;;;22.30;46.60;;;;;;5026262;28;20638;-68
2021/01/25 10:55:40;;;;;;;2.13;1.10;;;22.30;46.60;;;;;;5024124;28;20192;-71
2021/01/25 10:58:06;;;;;;;1.70;1.08;;;22.40;46.70;;;;;;5030972;28;20086;-69
2021/01/25 11:00:32;;;;;;;1.80;1.13;;;22.40;46.70;;;;;;5030337;28;20037;-70
2021/01/25 11:02:58;;;;;;;1.88;1.00;;;22.40;46.70;;;;;;5032150;28;20033;-67
2021/01/25 11:05:27;;;;;;;1.52;1.02;;;22.30;46.60;;;;;;5031153;28;20030;-67
2021/01/25 11:07:54;;;;;;;1.73;1.10;;;22.40;46.70;;;;;;5021308;28;20033;-69
2021/01/25 11:10:25;;;;;;;2.25;1.10;;;22.40;46.70;;;;;;5023030;28;20052;-67
2021/01/25 11:12:51;;;;;;;3.00;1.20;;;22.40;46.70;;;;;;5057356;28;20376;-70
2021/01/25 11:15:17;;;;;;;1.67;1.10;;;22.40;46.70;;;;;;5030906;28;20373;-73
2021/01/25 11:17:43;;;;;;;1.83;1.08;;;22.40;46.70;;;;;;5032481;28;20029;-73
2021/01/25 11:20:09;;;;;;;2.33;1.20;;;22.40;46.70;;;;;;5028786;28;20026;-69
2021/01/25 11:22:35;;;;;;;2.72;1.13;;;22.40;46.80;;;;;;5028697;28;20048;-69
2021/01/25 11:25:00;;;;;;;1.63;1.10;;;22.40;46.70;;;;;;5023926;28;20037;-68
2021/01/25 11:27:26;;;;;;;1.67;1.02;;;22.40;46.70;;;;;;5060709;28;20029;-69
2021/01/25 11:29:52;;;;;;;1.45;0.98;;;22.40;46.70;;;;;;5029080;28;20099;-70
2021/01/25 11:32:18;;;;;;;1.73;1.10;;;22.40;47.30;;;;;;5023783;28;20053;-65
2021/01/25 11:34:43;;;;;;;2.22;0.93;;;22.40;46.70;;;;;;5029774;28;20479;-68
2021/01/25 11:37:09;;;;;;;1.70;1.10;;;22.40;46.70;;;;;;5029139;28;20037;-62
2021/01/25 11:39:35;;;;;;;2.15;1.25;;;22.40;46.60;;;;;;5059898;28;20030;-62
2021/01/25 11:42:01;;;;;;;1.75;1.10;;;22.40;46.60;;;;;;5027671;28;20088;-61
2021/01/25 11:44:27;;;;;;;1.30;0.90;;;22.40;46.60;;;;;;5028859;28;20025;-63
2021/01/25 11:46:54;;;;;;;2.30;1.30;;;22.30;46.50;;;;;;5021634;28;20064;-62
2021/01/25 11:49:20;;;;;;;2.15;1.25;;;22.30;46.50;;;;;;5026944;28;20122;-62
2021/01/25 11:51:46;;;;;;;2.55;1.20;;;22.30;46.50;;;;;;5025422;28;20109;-62
2021/01/25 11:54:12;;;;;;;1.63;1.10;;;22.30;46.50;;;;;;5027087;28;20022;-74
2021/01/25 11:56:39;;;;;;;1.65;1.10;;;22.30;46.50;;;;;;5030001;28;20041;-72
2021/01/25 11:59:05;;;;;;;1.95;1.20;;;22.30;46.50;;;;;;5029844;28;20041;-75
2021/01/25 12:01:31;;;;;;;1.85;1.27;;;22.30;46.50;;;;;;5029733;28;20041;-76
2021/01/25 12:03:57;;;;;;;1.98;1.20;;;22.30;46.50;;;;;;5061546;28;20124;-71
2021/01/25 12:06:22;;;;;;;1.95;1.30;;;22.30;46.50;;;;;;5030147;28;20037;-72
2021/01/25 12:08:48;;;;;;;1.83;1.25;;;22.30;46.50;;;;;;5029381;28;20049;-73
2021/01/25 12:11:14;;;;;;;2.00;1.20;;;22.30;46.50;;;;;;5029334;28;20468;-78
2021/01/25 12:13:39;;;;;;;2.08;1.20;;;22.30;46.50;;;;;;5023599;28;20092;-73
2021/01/25 12:16:06;;;;;;;2.22;1.10;;;22.30;46.50;;;;;;5025593;28;20079;-72
2021/01/25 12:18:32;;;;;;;2.15;1.20;;;22.30;46.50;;;;;;5043362;28;20033;-71
2021/01/25 12:20:58;;;;;;;1.55;1.00;;;22.30;46.50;;;;;;5027695;28;20135;-70
2021/01/25 12:23:24;;;;;;;2.03;1.20;;;22.30;46.50;;;;;;5028130;28;20033;-71
2021/01/25 12:25:51;;;;;;;2.22;1.20;;;22.30;46.50;;;;;;5029027;28;20033;-73
2021/01/25 12:28:16;;;;;;;1.83;0.98;;;22.30;46.50;;;;;;5029303;28;20021;-69
2021/01/25 12:30:42;;;;;;;1.77;1.20;;;22.30;46.60;;;;;;5055869;28;20479;-69
2021/01/25 12:33:08;;;;;;;2.03;1.20;;;22.40;46.70;;;;;;5056953;28;20030;-72
2021/01/25 12:35:34;;;;;;;1.73;1.15;;;22.30;46.60;;;;;;5028181;28;20113;-72
2021/01/25 12:38:00;;;;;;;1.70;1.17;;;22.30;46.70;;;;;;5025151;28;20404;-70
2021/01/25 12:40:26;;;;;;;2.15;1.20;;;22.30;46.60;;;;;;5028141;28;20036;-70
2021/01/25 12:42:53;;;;;;;1.80;1.10;;;22.30;46.60;;;;;;5027807;28;20075;-71
2021/01/25 12:45:21;;;;;;;2.58;1.25;;;22.30;46.60;;;;;;5028022;28;20084;-75
2021/01/25 12:47:46;;;;;;;2.00;1.30;;;22.30;46.60;;;;;;5025139;28;20029;-74
2021/01/25 12:50:12;;;;;;;1.42;1.00;;;22.30;46.70;;;;;;5027639;28;20033;-71